createdAt,value
2023-02-25T00:01:24.626Z,99267.75
2023-02-25T00:03:53.888Z,99263.47
2023-02-25T00:06:22.650Z,99256.63
2023-02-25T00:08:51.351Z,99263.47
2023-02-25T00:11:21.195Z,99262.63
2023-02-25T00:13:48.849Z,99263.56
2023-02-25T00:16:16.552Z,99252.00
2023-02-25T00:18:46.730Z,99249.28
2023-02-25T00:21:16.273Z,99249.19
2023-02-25T00:23:46.018Z,99243.78
2023-02-25T00:26:14.552Z,99233.31
2023-02-25T00:28:43.196Z,99243.25
2023-02-25T00:31:17.488Z,99242.66
2023-02-25T00:33:45.436Z,99236.50
2023-02-25T00:36:19.015Z,99235.47
2023-02-25T00:38:48.495Z,99234.47
2023-02-25T00:41:19.281Z,99236.31
2023-02-25T00:43:52.741Z,99231.75
2023-02-25T00:46:21.432Z,99226.63
2023-02-25T00:48:49.568Z,99218.50
2023-02-25T00:51:19.731Z,99222.03
2023-02-25T00:53:47.758Z,99207.44
2023-02-25T00:56:16.556Z,99198.22
2023-02-25T00:58:45.284Z,99196.38
2023-02-25T01:01:30.423Z,99193.06
2023-02-25T01:03:58.529Z,99183.28
2023-02-25T01:06:27.890Z,99193.19
2023-02-25T01:08:55.801Z,99175.56
2023-02-25T01:11:29.548Z,99186.66
2023-02-25T01:14:00.540Z,99172.63
2023-02-25T01:16:30.100Z,99172.69
2023-02-25T01:19:20.882Z,99173.56
2023-02-25T01:21:51.701Z,99167.56
2023-02-25T01:24:22.452Z,99164.84
2023-02-25T01:26:52.167Z,99159.69
2023-02-25T01:29:22.614Z,99162.22
2023-02-25T01:31:55.832Z,99156.06
2023-02-25T01:34:24.054Z,99136.81
2023-02-25T01:36:51.913Z,99128.00
2023-02-25T01:39:22.286Z,99134.66
2023-02-25T01:41:53.472Z,99131.84
2023-02-25T01:44:35.264Z,99133.72
2023-02-25T01:47:03.344Z,99126.41
2023-02-25T01:49:40.323Z,99123.06
2023-02-25T01:52:11.793Z,99117.34
2023-02-25T01:54:40.354Z,99118.38
2023-02-25T01:57:10.441Z,99112.41
2023-02-25T01:59:39.556Z,99114.63
2023-02-25T02:02:13.433Z,99105.09
2023-02-25T02:04:43.331Z,99096.13
2023-02-25T02:07:11.362Z,99084.16
2023-02-25T02:09:40.386Z,99064.41
2023-02-25T02:12:08.446Z,99067.75
2023-02-25T02:14:39.472Z,99057.63
2023-02-25T02:17:18.486Z,99052.88
2023-02-25T02:20:00.901Z,99048.63
2023-02-25T02:22:31.332Z,99042.06
2023-02-25T02:25:36.970Z,99036.25
2023-02-25T02:28:10.696Z,99041.41
2023-02-25T02:31:09.283Z,99036.91
2023-02-25T02:33:43.720Z,99030.63
2023-02-25T02:36:24.998Z,99030.63
2023-02-25T02:39:16.640Z,99032.63
2023-02-25T02:42:17.003Z,99021.66
2023-02-25T02:44:44.507Z,99020.53
2023-02-25T02:47:16.785Z,99024.19
2023-02-25T02:49:48.919Z,99004.78
2023-02-25T02:52:21.308Z,99016.53
2023-02-25T02:54:53.531Z,99014.41
2023-02-25T02:57:22.433Z,99021.16
2023-02-25T03:00:13.306Z,99007.53
2023-02-25T03:02:42.960Z,99001.00
2023-02-25T03:05:13.105Z,99007.00
2023-02-25T03:07:47.987Z,98998.97
2023-02-25T03:10:18.820Z,98990.62
2023-02-25T03:12:47.475Z,98988.00
2023-02-25T03:15:15.149Z,98977.81
2023-02-25T03:17:46.874Z,98970.03
2023-02-25T03:20:28.568Z,98966.38
2023-02-25T03:22:59.444Z,98976.09
2023-02-25T03:25:33.760Z,98973.88
2023-02-25T03:28:30.636Z,98978.59
2023-02-25T03:31:06.600Z,98978.78
2023-02-25T03:33:41.351Z,98970.69
2023-02-25T03:36:14.234Z,98981.16
2023-02-25T03:38:45.387Z,98969.06
2023-02-25T03:41:51.817Z,98963.06
2023-02-25T03:44:42.540Z,98959.63
2023-02-25T03:47:11.523Z,98960.88
2023-02-25T03:49:56.011Z,98956.09
2023-02-25T03:52:25.121Z,98952.59
2023-02-25T03:54:56.115Z,98949.72
2023-02-25T03:57:29.379Z,98950.97
2023-02-25T03:59:57.106Z,98952.47
2023-02-25T04:02:28.512Z,98947.50
2023-02-25T04:04:57.649Z,98938.38
2023-02-25T04:07:25.627Z,98929.69
2023-02-25T04:09:53.473Z,98940.16
2023-02-25T04:12:21.322Z,98937.44
2023-02-25T04:14:48.858Z,98929.38
2023-02-25T04:17:16.841Z,98945.19
2023-02-25T04:19:45.466Z,98941.19
2023-02-25T04:22:13.114Z,98943.94
2023-02-25T04:24:40.637Z,98944.03
2023-02-25T04:27:08.483Z,98957.59
2023-02-25T04:29:36.137Z,98950.56
2023-02-25T04:32:03.863Z,98941.87
2023-02-25T04:34:31.687Z,98947.31
2023-02-25T04:37:02.270Z,98946.28
2023-02-25T04:39:30.013Z,98943.13
2023-02-25T04:41:58.267Z,98945.25
2023-02-25T04:44:26.176Z,98937.72
2023-02-25T04:46:53.775Z,98941.37
2023-02-25T04:49:22.533Z,98942.00
2023-02-25T04:51:51.626Z,98940.41
2023-02-25T04:54:20.311Z,98931.00
2023-02-25T04:56:48.652Z,98921.66
2023-02-25T04:59:16.527Z,98930.16
2023-02-25T05:01:44.055Z,98919.22
2023-02-25T05:04:11.993Z,98924.16
2023-02-25T05:06:39.513Z,98920.06
2023-02-25T05:09:09.293Z,98922.81
2023-02-25T05:11:38.182Z,98919.66
2023-02-25T05:14:05.761Z,98921.72
2023-02-25T05:16:33.495Z,98914.50
2023-02-25T05:19:01.359Z,98922.56
2023-02-25T05:21:29.585Z,98911.72
2023-02-25T05:23:57.256Z,98912.88
2023-02-25T05:26:25.655Z,98904.37
2023-02-25T05:28:55.323Z,98900.28
2023-02-25T05:31:24.854Z,98901.66
2023-02-25T05:33:53.120Z,98904.34
2023-02-25T05:36:21.178Z,98905.31
2023-02-25T05:38:49.151Z,98910.53
2023-02-25T05:41:17.183Z,98908.94
2023-02-25T05:43:45.929Z,98905.59
2023-02-25T05:46:14.042Z,98910.44
2023-02-25T05:48:45.996Z,98903.06
2023-02-25T05:51:19.429Z,98915.12
2023-02-25T05:53:49.132Z,98909.50
2023-02-25T05:56:22.105Z,98909.78
2023-02-25T05:58:50.232Z,98900.78
2023-02-25T06:01:24.031Z,98917.16
2023-02-25T06:03:52.473Z,98911.59
2023-02-25T06:06:24.790Z,98908.06
2023-02-25T06:08:53.541Z,98901.22
2023-02-25T06:11:23.795Z,98905.44
2023-02-25T06:13:53.074Z,98902.50
2023-02-25T06:16:21.957Z,98900.59
2023-02-25T06:18:51.433Z,98897.06
2023-02-25T06:21:19.426Z,98892.66
2023-02-25T06:23:50.204Z,98895.09
2023-02-25T06:26:18.405Z,98899.50
2023-02-25T06:28:46.150Z,98900.97
2023-02-25T06:31:16.757Z,98897.81
2023-02-25T06:33:45.701Z,98898.44
2023-02-25T06:36:13.677Z,98889.03
2023-02-25T06:38:43.277Z,98900.47
2023-02-25T06:41:15.541Z,98886.25
2023-02-25T06:43:44.512Z,98897.41
2023-02-25T06:46:14.499Z,98894.78
2023-02-25T06:48:42.072Z,98896.47
2023-02-25T06:51:10.706Z,98892.75
2023-02-25T06:53:43.269Z,98896.47
2023-02-25T06:56:13.005Z,98896.84
2023-02-25T06:58:40.926Z,98888.06
2023-02-25T07:01:10.062Z,98879.09
2023-02-25T07:03:38.049Z,98871.00
2023-02-25T07:06:06.167Z,98877.19
2023-02-25T07:08:34.199Z,98868.13
2023-02-25T07:11:17.341Z,98874.78
2023-02-25T07:13:49.043Z,98857.50
2023-02-25T07:16:17.552Z,98865.94
2023-02-25T07:18:45.302Z,98857.75
2023-02-25T07:21:13.864Z,98858.16
2023-02-25T07:23:42.646Z,98855.31
2023-02-25T07:26:12.141Z,98845.31
2023-02-25T07:28:40.283Z,98847.94
2023-02-25T07:31:17.295Z,98847.25
2023-02-25T07:33:45.460Z,98849.69
2023-02-25T07:36:13.983Z,98848.97
2023-02-25T07:38:41.863Z,98874.22
2023-02-25T07:41:15.393Z,98915.06
2023-02-25T07:43:43.887Z,98931.81
2023-02-25T07:46:13.486Z,98941.81
2023-02-25T07:48:41.603Z,98913.66
2023-02-25T07:51:16.176Z,98918.69
2023-02-25T07:53:43.877Z,98913.72
2023-02-25T07:56:11.958Z,98967.47
2023-02-25T07:58:39.676Z,99014.78
2023-02-25T08:01:12.821Z,99050.13
2023-02-25T08:03:40.661Z,99058.19
2023-02-25T08:06:08.744Z,99082.88
2023-02-25T08:08:38.194Z,99084.03
2023-02-25T08:11:07.824Z,99095.09
2023-02-25T08:13:35.832Z,99092.31
2023-02-25T08:16:07.528Z,99104.22
2023-02-25T08:18:35.829Z,99097.84
2023-02-25T08:21:04.642Z,99114.53
2023-02-25T08:23:32.280Z,99123.56
2023-02-25T08:26:00.871Z,99136.25
2023-02-25T08:28:34.293Z,99140.37
2023-02-25T08:31:04.327Z,99146.13
2023-02-25T08:33:32.052Z,99142.41
2023-02-25T08:36:14.249Z,99138.19
2023-02-25T08:38:42.601Z,99139.69
2023-02-25T08:41:10.586Z,99152.19
2023-02-25T08:43:39.063Z,99151.50
2023-02-25T08:46:06.983Z,99167.00
2023-02-25T08:48:35.157Z,99170.06
2023-02-25T08:51:10.090Z,99166.06
2023-02-25T08:53:39.888Z,99166.03
2023-02-25T08:56:10.012Z,99166.25
2023-02-25T08:58:38.495Z,99160.13
2023-02-25T09:01:15.642Z,99166.97
2023-02-25T09:03:55.259Z,99166.97
2023-02-25T09:06:24.597Z,99178.03
2023-02-25T09:08:52.720Z,99179.72
2023-02-25T09:11:21.656Z,99165.44
2023-02-25T09:13:49.297Z,99173.22
2023-02-25T09:16:17.624Z,99168.72
2023-02-25T09:18:50.333Z,99165.03
2023-02-25T09:21:19.100Z,99162.41
2023-02-25T09:23:47.803Z,99160.47
2023-02-25T09:26:15.395Z,99165.72
2023-02-25T09:28:43.471Z,99177.50
2023-02-25T09:31:11.242Z,99208.50
2023-02-25T09:33:41.977Z,99185.00
2023-02-25T09:36:15.356Z,99190.44
2023-02-25T09:38:44.015Z,99160.41
2023-02-25T09:41:32.172Z,99184.38
2023-02-25T09:44:29.882Z,99190.63
2023-02-25T09:47:04.466Z,99188.75
2023-02-25T09:49:37.307Z,99196.34
2023-02-25T09:52:32.255Z,99205.66
2023-02-25T09:55:34.558Z,99200.16
2023-02-25T09:58:11.777Z,99223.66
2023-02-25T10:00:56.238Z,99232.56
2023-02-25T10:03:51.872Z,99225.22
2023-02-25T10:06:39.091Z,99217.28
2023-02-25T10:09:22.788Z,99213.53
2023-02-25T10:11:53.564Z,99234.75
2023-02-25T10:14:45.851Z,99238.16
2023-02-25T10:17:44.463Z,99253.00
2023-02-25T10:20:27.772Z,99277.53
2023-02-25T10:23:40.368Z,99299.06
2023-02-25T10:26:24.642Z,99282.06
2023-02-25T10:29:00.727Z,99279.03
2023-02-25T10:31:30.057Z,99281.28
2023-02-25T10:34:18.193Z,99270.94
2023-02-25T10:36:55.700Z,99305.22
2023-02-25T10:39:24.162Z,99291.22
2023-02-25T10:41:52.043Z,99284.69
2023-02-25T10:44:19.576Z,99281.72
2023-02-25T10:47:00.589Z,99283.50
2023-02-25T10:49:30.358Z,99283.84
2023-02-25T10:52:04.635Z,99260.13
2023-02-25T10:54:34.843Z,99282.03
2023-02-25T10:57:08.821Z,99285.91
2023-02-25T10:59:39.664Z,99293.00
2023-02-25T11:02:23.338Z,99278.41
2023-02-25T11:04:52.594Z,99288.78
2023-02-25T11:07:34.184Z,99292.56
2023-02-25T11:10:11.175Z,99303.41
2023-02-25T11:12:46.125Z,99309.97
2023-02-25T11:15:20.266Z,99302.47
2023-02-25T11:17:48.138Z,99311.66
2023-02-25T11:20:24.522Z,99308.25
2023-02-25T11:22:53.778Z,99303.19
2023-02-25T11:25:41.247Z,99302.72
2023-02-25T11:28:28.817Z,99310.50
2023-02-25T11:31:09.646Z,99288.12
2023-02-25T11:33:40.990Z,99293.34
2023-02-25T11:36:09.905Z,99277.37
2023-02-25T11:38:39.911Z,99261.59
2023-02-25T11:41:24.737Z,99293.84
2023-02-25T11:43:54.349Z,99281.19
2023-02-25T11:46:25.430Z,99263.47
2023-02-25T11:49:18.646Z,99277.78
2023-02-25T11:52:08.486Z,99270.84
2023-02-25T11:54:42.146Z,99271.81
2023-02-25T11:57:21.563Z,99252.84
2023-02-25T12:00:20.776Z,99250.09
2023-02-25T12:02:55.670Z,99255.88
2023-02-25T12:05:41.884Z,99257.13
2023-02-25T12:08:15.718Z,99263.75
2023-02-25T12:11:15.717Z,99248.50
2023-02-25T12:14:03.029Z,99254.00
2023-02-25T12:16:39.001Z,99245.41
2023-02-25T12:19:15.464Z,99239.03
2023-02-25T12:22:13.103Z,99230.00
2023-02-25T12:25:02.328Z,99258.38
2023-02-25T12:27:54.589Z,99252.91
2023-02-25T12:30:53.978Z,99265.34
2023-02-25T12:33:59.167Z,99250.53
2023-02-25T12:36:48.053Z,99262.88
2023-02-25T12:39:24.719Z,99280.84
2023-02-25T12:41:58.840Z,99270.94
2023-02-25T12:44:57.287Z,99304.31
2023-02-25T12:47:44.688Z,99295.44
2023-02-25T12:50:18.995Z,99276.44
2023-02-25T12:52:58.522Z,99261.63
2023-02-25T12:55:55.619Z,99258.12
2023-02-25T12:58:28.211Z,99240.06
2023-02-25T13:01:13.062Z,99248.28
2023-02-25T13:04:09.354Z,99245.13
2023-02-25T13:06:55.608Z,99242.09
2023-02-25T13:10:01.427Z,99240.34
2023-02-25T13:12:42.624Z,99247.78
2023-02-25T13:15:29.419Z,99254.31
2023-02-25T13:18:07.206Z,99258.38
2023-02-25T13:20:47.071Z,99258.69
2023-02-25T13:23:17.573Z,99242.97
2023-02-25T13:25:51.012Z,99260.47
2023-02-25T13:28:54.784Z,99258.31
2023-02-25T13:31:50.307Z,99243.56
2023-02-25T13:34:50.727Z,99237.13
2023-02-25T13:37:27.847Z,99235.34
2023-02-25T13:40:29.537Z,99254.87
2023-02-25T13:43:06.356Z,99257.16
2023-02-25T13:46:00.030Z,99252.78
2023-02-25T13:48:52.642Z,99253.56
2023-02-25T13:51:58.502Z,99272.66
2023-02-25T13:54:42.266Z,99269.06
2023-02-25T13:57:44.519Z,99269.87
2023-02-25T14:00:31.589Z,99277.91
2023-02-25T14:03:34.272Z,99282.16
2023-02-25T14:06:02.036Z,99274.63
2023-02-25T14:08:48.710Z,99270.44
2023-02-25T14:11:37.770Z,99255.75
2023-02-25T14:14:11.507Z,99279.31
2023-02-25T14:17:09.772Z,99279.75
2023-02-25T14:19:49.616Z,99276.94
2023-02-25T14:22:29.460Z,99274.88
2023-02-25T14:25:35.478Z,99278.88
2023-02-25T14:28:23.008Z,99275.28
2023-02-25T14:31:03.169Z,99280.50
2023-02-25T14:33:49.609Z,99269.13
2023-02-25T14:36:55.038Z,99281.75
2023-02-25T14:39:27.580Z,99279.94
2023-02-25T14:42:18.416Z,99275.31
2023-02-25T14:44:55.108Z,99266.19
2023-02-25T14:47:32.714Z,99236.97
2023-02-25T14:50:13.587Z,99226.22
2023-02-25T14:52:53.452Z,99196.53
2023-02-25T14:55:39.279Z,99205.34
2023-02-25T14:58:22.309Z,99222.31
2023-02-25T15:01:28.504Z,99209.66
2023-02-25T15:04:35.606Z,99189.00
2023-02-25T15:07:18.164Z,99217.63
2023-02-25T15:10:07.618Z,99234.50
2023-02-25T15:12:53.958Z,99270.56
2023-02-25T15:15:25.100Z,99304.59
2023-02-25T15:18:17.702Z,99288.69
2023-02-25T15:20:45.959Z,99292.56
2023-02-25T15:23:16.550Z,99273.34
2023-02-25T15:25:53.970Z,99282.84
2023-02-25T15:28:30.747Z,99270.28
2023-02-25T15:30:58.956Z,99275.16
2023-02-25T15:33:40.401Z,99261.09
2023-02-25T15:36:14.036Z,99267.91
2023-02-25T15:38:51.800Z,99269.87
2023-02-25T15:41:34.708Z,99273.16
2023-02-25T15:44:08.533Z,99273.84
2023-02-25T15:46:36.019Z,99272.28
2023-02-25T15:49:05.527Z,99277.53
2023-02-25T15:51:53.950Z,99265.56
2023-02-25T15:54:46.177Z,99268.25
2023-02-25T15:57:13.820Z,99259.38
2023-02-25T15:59:49.137Z,99260.81
2023-02-25T16:02:29.150Z,99257.53
2023-02-25T16:05:09.307Z,99260.81
2023-02-25T16:07:42.759Z,99279.44
2023-02-25T16:10:23.475Z,99286.63
2023-02-25T16:12:54.674Z,99297.97
2023-02-25T16:15:33.854Z,99303.03
2023-02-25T16:18:14.203Z,99298.69
2023-02-25T16:20:47.350Z,99290.97
2023-02-25T16:23:16.014Z,99278.59
2023-02-25T16:26:08.563Z,99289.34
2023-02-25T16:29:00.882Z,99320.22
2023-02-25T16:31:36.306Z,99332.41
2023-02-25T16:34:05.453Z,99327.59
2023-02-25T16:36:41.469Z,99313.22
2023-02-25T16:39:25.017Z,99322.44
2023-02-25T16:41:53.611Z,99340.38
2023-02-25T16:44:26.926Z,99344.87
2023-02-25T16:46:55.298Z,99357.81
2023-02-25T16:49:29.015Z,99346.75
2023-02-25T16:51:58.306Z,99351.88
2023-02-25T16:54:31.121Z,99353.50
2023-02-25T16:57:01.980Z,99349.28
2023-02-25T16:59:34.839Z,99349.03
2023-02-25T17:02:20.240Z,99354.25
2023-02-25T17:04:53.374Z,99356.28
2023-02-25T17:07:27.884Z,99351.84
2023-02-25T17:10:02.006Z,99365.50
2023-02-25T17:12:47.637Z,99382.31
2023-02-25T17:15:17.091Z,99383.06
2023-02-25T17:17:45.776Z,99369.88
2023-02-25T17:20:24.390Z,99347.59
2023-02-25T17:22:55.157Z,99350.19
2023-02-25T17:25:27.443Z,99345.06
2023-02-25T17:27:58.843Z,99356.50
2023-02-25T17:30:48.068Z,99388.78
2023-02-25T17:33:19.060Z,99394.06
2023-02-25T17:35:48.140Z,99400.22
2023-02-25T17:38:20.029Z,99386.47
2023-02-25T17:40:47.920Z,99380.34
2023-02-25T17:43:18.925Z,99378.97
2023-02-25T17:46:01.536Z,99377.91
2023-02-25T17:48:32.347Z,99382.47
2023-02-25T17:51:03.881Z,99390.91
2023-02-25T17:53:48.485Z,99378.31
2023-02-25T17:56:22.855Z,99396.50
2023-02-25T17:58:52.702Z,99394.28
2023-02-25T18:01:30.837Z,99386.41
2023-02-25T18:04:05.558Z,99388.97
2023-02-25T18:06:52.203Z,99391.13
2023-02-25T18:09:40.991Z,99390.66
2023-02-25T18:12:27.169Z,99377.03
2023-02-25T18:15:15.747Z,99376.34
2023-02-25T18:17:47.891Z,99392.19
2023-02-25T18:20:30.166Z,99384.94
2023-02-25T18:23:06.654Z,99378.34
2023-02-25T18:25:45.684Z,99381.94
2023-02-25T18:28:18.168Z,99392.50
2023-02-25T18:30:46.127Z,99401.34
2023-02-25T18:33:15.502Z,99397.00
2023-02-25T18:35:45.429Z,99382.41
2023-02-25T18:38:21.138Z,99375.47
2023-02-25T18:40:50.312Z,99384.44
2023-02-25T18:43:20.600Z,99388.75
2023-02-25T18:45:48.974Z,99390.47
2023-02-25T18:48:16.726Z,99373.31
2023-02-25T18:50:44.999Z,99374.41
2023-02-25T18:53:18.362Z,99378.50
2023-02-25T18:55:46.690Z,99373.28
2023-02-25T18:58:16.500Z,99367.78
2023-02-25T19:00:47.832Z,99382.75
2023-02-25T19:03:34.291Z,99381.25
2023-02-25T19:06:04.412Z,99380.69
2023-02-25T19:08:32.291Z,99379.97
2023-02-25T19:11:00.291Z,99385.00
2023-02-25T19:13:36.971Z,99399.16
2023-02-25T19:16:05.780Z,99397.31
2023-02-25T19:18:33.721Z,99405.19
2023-02-25T19:21:01.585Z,99410.31
2023-02-25T19:23:29.392Z,99397.16
2023-02-25T19:25:59.785Z,99403.94
2023-02-25T19:28:28.201Z,99410.97
2023-02-25T19:30:56.259Z,99416.19
2023-02-25T19:33:24.243Z,99426.75
2023-02-25T19:35:52.270Z,99417.44
2023-02-25T19:38:20.677Z,99427.59
2023-02-25T19:40:49.005Z,99428.03
2023-02-25T19:43:17.901Z,99415.69
2023-02-25T19:45:47.141Z,99422.63
2023-02-25T19:48:15.043Z,99418.31
2023-02-25T19:50:42.739Z,99419.97
2023-02-25T19:53:11.310Z,99431.44
2023-02-25T19:55:39.158Z,99426.25
2023-02-25T19:58:07.222Z,99436.72
2023-02-25T20:00:35.243Z,99434.53
2023-02-25T20:03:03.482Z,99440.75
2023-02-25T20:05:31.527Z,99447.03
2023-02-25T20:07:59.290Z,99446.69
2023-02-25T20:10:27.459Z,99467.37
2023-02-25T20:12:55.192Z,99461.75
2023-02-25T20:15:22.964Z,99463.94
2023-02-25T20:17:54.967Z,99465.41
2023-02-25T20:20:23.897Z,99474.19
2023-02-25T20:22:52.344Z,99480.31
2023-02-25T20:25:20.625Z,99488.91
2023-02-25T20:27:48.370Z,99493.94
2023-02-25T20:30:17.814Z,99481.59
2023-02-25T20:32:46.278Z,99483.97
2023-02-25T20:35:17.690Z,99490.44
2023-02-25T20:37:54.434Z,99494.78
2023-02-25T20:40:22.276Z,99503.34
2023-02-25T20:42:50.473Z,99499.16
2023-02-25T20:45:18.575Z,99497.41
2023-02-25T20:47:46.484Z,99493.84
2023-02-25T20:50:16.024Z,99487.19
2023-02-25T20:52:44.102Z,99484.34
2023-02-25T20:55:11.830Z,99486.75
2023-02-25T20:57:39.880Z,99491.09
2023-02-25T21:00:09.168Z,99492.84
2023-02-25T21:02:37.066Z,99491.97
2023-02-25T21:05:05.032Z,99493.44
2023-02-25T21:07:32.876Z,99497.16
2023-02-25T21:10:00.710Z,99490.03
2023-02-25T21:12:28.536Z,99478.56
2023-02-25T21:14:56.096Z,99481.16
2023-02-25T21:17:23.926Z,99483.06
2023-02-25T21:19:52.087Z,99465.47
2023-02-25T21:22:19.731Z,99463.72
2023-02-25T21:24:47.181Z,99462.13
2023-02-25T21:27:15.295Z,99463.72
2023-02-25T21:29:43.354Z,99460.28
2023-02-25T21:32:11.547Z,99448.94
2023-02-25T21:34:40.031Z,99447.28
2023-02-25T21:37:07.780Z,99448.38
2023-02-25T21:39:35.737Z,99463.19
2023-02-25T21:42:03.747Z,99454.66
2023-02-25T21:44:31.249Z,99478.09
2023-02-25T21:46:58.786Z,99478.03
2023-02-25T21:49:30.878Z,99487.59
2023-02-25T21:51:59.476Z,99504.03
2023-02-25T21:54:27.495Z,99491.84
2023-02-25T21:56:55.029Z,99495.97
2023-02-25T21:59:23.384Z,99496.06
2023-02-25T22:01:51.736Z,99488.13
2023-02-25T22:04:19.746Z,99491.56
2023-02-25T22:06:48.917Z,99500.09
2023-02-25T22:09:18.103Z,99494.81
2023-02-25T22:11:46.204Z,99502.66
2023-02-25T22:14:14.158Z,99501.22
2023-02-25T22:16:41.692Z,99499.63
2023-02-25T22:19:09.485Z,99488.38
2023-02-25T22:21:37.055Z,99484.06
2023-02-25T22:24:05.542Z,99480.31
2023-02-25T22:26:35.542Z,99476.69
2023-02-25T22:29:08.807Z,99468.97
2023-02-25T22:31:37.087Z,99472.41
2023-02-25T22:34:05.691Z,99470.62
2023-02-25T22:36:33.244Z,99474.34
2023-02-25T22:39:04.784Z,99482.97
2023-02-25T22:41:32.353Z,99487.50
2023-02-25T22:44:00.476Z,99498.06
2023-02-25T22:46:33.329Z,99496.22
2023-02-25T22:49:00.849Z,99503.38
2023-02-25T22:51:35.766Z,99500.31
2023-02-25T22:54:04.820Z,99503.25
2023-02-25T22:56:32.665Z,99504.19
2023-02-25T22:59:00.506Z,99507.84
2023-02-25T23:01:28.575Z,99505.59
2023-02-25T23:03:57.260Z,99504.00
2023-02-25T23:06:42.108Z,99503.66
2023-02-25T23:09:13.435Z,99509.56
2023-02-25T23:11:42.577Z,99504.38
2023-02-25T23:14:10.329Z,99504.28
2023-02-25T23:16:41.513Z,99495.88
2023-02-25T23:19:16.926Z,99501.78
2023-02-25T23:21:45.571Z,99496.56
2023-02-25T23:24:16.529Z,99488.16
2023-02-25T23:26:45.669Z,99493.09
2023-02-25T23:29:13.784Z,99483.56
2023-02-25T23:31:44.974Z,99481.06
2023-02-25T23:34:15.352Z,99484.47
2023-02-25T23:36:44.114Z,99491.16
2023-02-25T23:39:13.039Z,99493.34
2023-02-25T23:41:41.481Z,99502.66
2023-02-25T23:44:11.467Z,99497.41
2023-02-25T23:46:39.567Z,99492.34
2023-02-25T23:49:07.566Z,99483.75
2023-02-25T23:51:36.214Z,99488.84
2023-02-25T23:54:05.618Z,99481.88
2023-02-25T23:56:34.179Z,99477.56
2023-02-25T23:59:02.061Z,99471.84
